createdAt,value
2018-06-11T00:00:09.644Z,14.70
2018-06-11T00:01:09.619Z,14.10
2018-06-11T00:02:09.595Z,14.50
2018-06-11T00:03:09.572Z,11.90
2018-06-11T00:04:09.550Z,12.80
2018-06-11T00:05:09.527Z,13.20
2018-06-11T00:06:09.504Z,12.60
2018-06-11T00:07:09.477Z,11.90
2018-06-11T00:08:09.457Z,12.00
2018-06-11T00:09:09.429Z,12.70
2018-06-11T00:10:09.405Z,11.50
2018-06-11T00:11:09.383Z,10.10
2018-06-11T00:12:09.358Z,10.60
2018-06-11T00:13:09.333Z,10.90
2018-06-11T00:14:09.311Z,10.10
2018-06-11T00:15:09.289Z,10.50
2018-06-11T00:16:09.266Z,10.50
2018-06-11T00:17:09.240Z,10.90
2018-06-11T00:18:09.215Z,9.70
2018-06-11T00:19:09.196Z,9.60
2018-06-11T00:20:09.169Z,10.00
2018-06-11T00:21:09.145Z,10.30
2018-06-11T00:22:09.128Z,10.20
2018-06-11T00:23:09.099Z,9.70
2018-06-11T00:24:09.074Z,9.40
2018-06-11T00:25:09.050Z,10.30
2018-06-11T00:26:09.029Z,9.00
2018-06-11T00:27:09.002Z,9.40
2018-06-11T00:28:08.981Z,9.00
2018-06-11T00:29:08.956Z,9.00
2018-06-11T00:30:08.933Z,8.70
2018-06-11T00:31:08.909Z,8.70
2018-06-11T00:32:08.883Z,8.40
2018-06-11T00:33:08.858Z,8.80
2018-06-11T00:34:08.835Z,8.20
2018-06-11T00:35:08.811Z,8.80
2018-06-11T00:36:08.787Z,8.30
2018-06-11T00:37:08.763Z,8.20
2018-06-11T00:38:08.738Z,7.90
2018-06-11T00:39:08.715Z,7.90
2018-06-11T00:40:08.695Z,8.20
2018-06-11T00:41:08.666Z,7.10
2018-06-11T00:42:08.645Z,8.00
2018-06-11T00:43:08.623Z,7.10
2018-06-11T00:44:08.595Z,7.20
2018-06-11T00:45:08.570Z,7.90
2018-06-11T00:46:08.546Z,7.90
2018-06-11T00:47:08.528Z,7.50
2018-06-11T00:48:08.500Z,7.60
2018-06-11T00:49:08.472Z,8.10
2018-06-11T00:50:09.254Z,7.60
2018-06-11T00:51:08.430Z,7.60
2018-06-11T00:52:08.404Z,8.10
2018-06-11T00:53:08.376Z,7.50
2018-06-11T00:54:08.353Z,7.30
2018-06-11T00:55:08.328Z,7.70
2018-06-11T00:56:08.305Z,7.60
2018-06-11T00:57:08.280Z,7.40
2018-06-11T00:58:08.256Z,7.40
2018-06-11T00:59:08.231Z,7.70
2018-06-11T01:00:08.210Z,7.20
2018-06-11T01:01:08.182Z,7.00
2018-06-11T01:02:08.171Z,7.80
2018-06-11T01:03:08.134Z,6.80
2018-06-11T01:04:08.110Z,7.10
2018-06-11T01:05:08.086Z,7.50
2018-06-11T01:06:08.061Z,7.60
2018-06-11T01:07:08.038Z,7.40
2018-06-11T01:08:08.013Z,6.60
2018-06-11T01:09:07.988Z,7.50
2018-06-11T01:10:07.963Z,7.70
2018-06-11T01:11:07.942Z,7.60
2018-06-11T01:12:07.914Z,7.30
2018-06-11T01:13:07.889Z,6.80
2018-06-11T01:14:08.067Z,7.30
2018-06-11T01:15:07.841Z,7.90
2018-06-11T01:16:07.818Z,7.00
2018-06-11T01:17:07.793Z,7.20
2018-06-11T01:18:07.968Z,6.90
2018-06-11T01:19:07.747Z,6.40
2018-06-11T01:20:07.719Z,7.10
2018-06-11T01:21:07.693Z,7.30
2018-06-11T01:22:07.673Z,7.00
2018-06-11T01:23:07.645Z,7.00
2018-06-11T01:24:07.837Z,6.60
2018-06-11T01:25:07.594Z,6.50
2018-06-11T01:26:07.587Z,6.70
2018-06-11T01:27:07.546Z,6.30
2018-06-11T01:28:07.523Z,6.70
2018-06-11T01:29:07.498Z,7.20
2018-06-11T01:30:07.674Z,6.80
2018-06-11T01:31:07.448Z,7.00
2018-06-11T01:32:07.430Z,7.00
2018-06-11T01:33:07.398Z,6.80
2018-06-11T01:34:07.576Z,7.30
2018-06-11T01:35:07.349Z,7.30
2018-06-11T01:36:07.529Z,6.80
2018-06-11T01:37:07.304Z,6.90
2018-06-11T01:38:07.274Z,7.60
2018-06-11T01:39:07.252Z,6.90
2018-06-11T01:40:07.228Z,7.20
2018-06-11T01:41:07.199Z,7.10
2018-06-11T01:42:07.179Z,7.00
2018-06-11T01:43:07.152Z,7.40
2018-06-11T01:44:07.128Z,7.20
2018-06-11T01:45:07.111Z,6.90
2018-06-11T01:46:07.078Z,7.10
2018-06-11T01:47:07.055Z,6.40
2018-06-11T01:48:07.029Z,6.50
2018-06-11T01:49:07.003Z,7.10
2018-06-11T01:50:06.978Z,7.40
2018-06-11T01:51:06.954Z,6.80
2018-06-11T01:52:06.934Z,6.80
2018-06-11T01:53:06.913Z,6.40
2018-06-11T01:54:06.883Z,6.80
2018-06-11T01:55:06.857Z,6.80
2018-06-11T01:56:06.834Z,6.50
2018-06-11T01:57:06.808Z,6.30
2018-06-11T01:58:06.782Z,6.50
2018-06-11T01:59:06.759Z,6.50
2018-06-11T02:00:06.732Z,6.90
2018-06-11T02:01:06.708Z,6.80
2018-06-11T02:02:06.680Z,7.00
2018-06-11T02:03:06.656Z,6.50
2018-06-11T02:04:06.835Z,6.80
2018-06-11T02:05:06.606Z,6.50
2018-06-11T02:06:06.582Z,6.20
2018-06-11T02:07:06.556Z,6.40
2018-06-11T02:08:06.533Z,6.70
2018-06-11T02:09:06.507Z,6.70
2018-06-11T02:10:06.481Z,6.50
2018-06-11T02:11:06.458Z,7.20
2018-06-11T02:12:06.432Z,6.60
2018-06-11T02:13:06.406Z,6.90
2018-06-11T02:14:06.383Z,7.00
2018-06-11T02:15:06.364Z,7.20
2018-06-11T02:16:06.335Z,6.80
2018-06-11T02:17:06.310Z,7.10
2018-06-11T02:18:06.335Z,6.40
2018-06-11T02:19:06.261Z,6.30
2018-06-11T02:20:06.239Z,6.10
2018-06-11T02:21:06.210Z,6.70
2018-06-11T02:22:06.187Z,6.60
2018-06-11T02:23:06.163Z,6.10
2018-06-11T02:24:06.140Z,6.70
2018-06-11T02:25:06.118Z,6.50
2018-06-11T02:26:06.094Z,6.70
2018-06-11T02:27:06.070Z,6.80
2018-06-11T02:28:06.041Z,6.80
2018-06-11T02:29:06.046Z,7.20
2018-06-11T02:30:05.992Z,6.70
2018-06-11T02:31:05.967Z,6.90
2018-06-11T02:32:05.949Z,7.40
2018-06-11T02:33:05.920Z,6.70
2018-06-11T02:34:05.895Z,6.60
2018-06-11T02:35:05.869Z,7.10
2018-06-11T02:36:05.846Z,7.10
2018-06-11T02:37:05.825Z,7.30
2018-06-11T02:38:05.797Z,7.00
2018-06-11T02:39:05.772Z,7.10
2018-06-11T02:40:05.752Z,6.20
2018-06-11T02:41:05.723Z,7.00
2018-06-11T02:42:05.700Z,6.80
2018-06-11T02:43:05.678Z,6.50
2018-06-11T02:44:05.651Z,6.40
2018-06-11T02:45:05.633Z,7.20
2018-06-11T02:46:05.603Z,6.90
2018-06-11T02:47:05.578Z,6.70
2018-06-11T02:48:05.560Z,7.40
2018-06-11T02:49:05.529Z,7.20
2018-06-11T02:50:05.505Z,7.20
2018-06-11T02:51:05.481Z,6.80
2018-06-11T02:52:05.458Z,6.80
2018-06-11T02:53:05.433Z,6.70
2018-06-11T02:54:05.412Z,6.80
2018-06-11T02:55:05.392Z,7.20
2018-06-11T02:56:05.360Z,6.70
2018-06-11T02:57:05.336Z,7.40
2018-06-11T02:58:05.311Z,6.80
2018-06-11T02:59:05.295Z,7.60
2018-06-11T03:00:05.263Z,7.90
2018-06-11T03:01:05.240Z,7.70
2018-06-11T03:02:05.216Z,7.40
2018-06-11T03:03:05.191Z,7.50
2018-06-11T03:04:05.174Z,7.00
2018-06-11T03:05:05.141Z,7.50
2018-06-11T03:06:05.119Z,7.30
2018-06-11T03:07:05.097Z,7.60
2018-06-11T03:08:05.074Z,8.00
2018-06-11T03:09:05.046Z,7.10
2018-06-11T03:10:05.021Z,7.50
2018-06-11T03:11:04.999Z,7.20
2018-06-11T03:12:04.979Z,7.60
2018-06-11T03:13:04.948Z,7.40
2018-06-11T03:14:04.925Z,7.10
2018-06-11T03:15:04.905Z,8.00
2018-06-11T03:16:04.878Z,7.00
2018-06-11T03:17:04.866Z,7.40
2018-06-11T03:18:04.831Z,7.00
2018-06-11T03:19:04.805Z,7.20
2018-06-11T03:20:04.781Z,7.00
2018-06-11T03:21:04.761Z,7.40
2018-06-11T03:22:04.739Z,7.90
2018-06-11T03:23:04.708Z,8.40
2018-06-11T03:24:04.686Z,8.20
2018-06-11T03:25:04.660Z,9.10
2018-06-11T03:26:04.635Z,8.50
2018-06-11T03:27:04.612Z,9.20
2018-06-11T03:28:04.589Z,8.40
2018-06-11T03:29:04.562Z,8.70
2018-06-11T03:30:04.546Z,8.90
2018-06-11T03:31:04.520Z,9.20
2018-06-11T03:32:04.490Z,8.60
2018-06-11T03:33:04.469Z,9.50
2018-06-11T03:34:04.442Z,9.10
2018-06-11T03:35:04.418Z,9.20
2018-06-11T03:36:04.394Z,9.70
2018-06-11T03:37:04.370Z,9.10
2018-06-11T03:38:04.346Z,9.70
2018-06-11T03:39:04.321Z,10.20
2018-06-11T03:40:04.301Z,9.30
2018-06-11T03:41:04.287Z,9.70
2018-06-11T03:42:04.253Z,9.30
2018-06-11T03:43:04.223Z,9.40
2018-06-11T03:44:04.204Z,10.10
2018-06-11T03:45:04.175Z,9.60
2018-06-11T03:46:04.151Z,9.40
2018-06-11T03:47:04.127Z,9.80
2018-06-11T03:48:04.104Z,9.10
2018-06-11T03:49:04.080Z,9.40
2018-06-11T03:50:04.057Z,8.70
2018-06-11T03:51:04.030Z,9.40
2018-06-11T03:52:04.007Z,9.00
2018-06-11T03:53:04.005Z,8.40
2018-06-11T03:54:03.963Z,8.60
2018-06-11T03:55:03.934Z,8.50
2018-06-11T03:56:03.909Z,8.00
2018-06-11T03:57:03.887Z,8.30
2018-06-11T03:58:03.860Z,8.30
2018-06-11T03:59:03.836Z,8.50
2018-06-11T04:00:03.813Z,8.60
2018-06-11T04:01:03.793Z,8.50
2018-06-11T04:02:03.769Z,9.60
2018-06-11T04:03:03.742Z,8.80
2018-06-11T04:04:03.718Z,8.60
2018-06-11T04:05:03.691Z,8.70
2018-06-11T04:06:03.669Z,8.90
2018-06-11T04:07:03.642Z,9.10
2018-06-11T04:08:03.619Z,9.00
2018-06-11T04:09:03.596Z,8.40
2018-06-11T04:10:03.569Z,9.60
2018-06-11T04:11:03.624Z,8.50
2018-06-11T04:12:03.523Z,8.40
2018-06-11T04:13:03.497Z,8.60
2018-06-11T04:14:03.476Z,8.90
2018-06-11T04:15:03.450Z,9.60
2018-06-11T04:16:03.429Z,9.70
2018-06-11T04:17:03.402Z,9.60
2018-06-11T04:18:03.376Z,9.60
2018-06-11T04:19:03.356Z,8.70
2018-06-11T04:20:03.328Z,8.80
2018-06-11T04:21:03.305Z,9.70
2018-06-11T04:22:03.282Z,8.80
2018-06-11T04:23:03.256Z,8.80
2018-06-11T04:24:03.232Z,8.80
2018-06-11T04:25:03.209Z,9.60
2018-06-11T04:26:03.184Z,10.50
2018-06-11T04:27:03.159Z,9.30
2018-06-11T04:28:03.134Z,9.20
2018-06-11T04:29:03.110Z,9.60
2018-06-11T04:30:03.095Z,10.50
2018-06-11T04:31:03.063Z,9.80
2018-06-11T04:32:03.039Z,10.50
2018-06-11T04:33:03.015Z,9.40
2018-06-11T04:34:02.990Z,9.00
2018-06-11T04:35:02.966Z,9.50
2018-06-11T04:36:02.943Z,9.00
2018-06-11T04:37:02.921Z,9.00
2018-06-11T04:38:02.902Z,9.10
2018-06-11T04:39:02.873Z,9.30
2018-06-11T04:40:02.848Z,8.90
2018-06-11T04:41:02.822Z,8.70
2018-06-11T04:42:02.800Z,9.20
2018-06-11T04:43:02.781Z,9.50
2018-06-11T04:44:02.753Z,9.20
2018-06-11T04:45:02.733Z,8.30
2018-06-11T04:46:02.711Z,8.70
2018-06-11T04:47:02.687Z,9.10
2018-06-11T04:48:02.659Z,8.20
2018-06-11T04:49:02.633Z,9.20
2018-06-11T04:50:02.614Z,8.40
2018-06-11T04:51:02.587Z,7.90
2018-06-11T04:52:02.564Z,7.30
2018-06-11T04:53:02.541Z,7.00
2018-06-11T04:54:02.518Z,7.80
2018-06-11T04:55:02.546Z,7.60
2018-06-11T04:56:02.470Z,8.00
2018-06-11T04:57:02.450Z,8.10
2018-06-11T04:58:02.425Z,7.60
2018-06-11T04:59:02.398Z,7.90
2018-06-11T05:00:02.379Z,7.60
2018-06-11T05:01:02.353Z,8.30
2018-06-11T05:02:02.331Z,7.10
2018-06-11T05:03:02.315Z,7.50
2018-06-11T05:04:02.285Z,7.70
2018-06-11T05:05:02.258Z,6.80
2018-06-11T05:06:02.239Z,6.50
2018-06-11T05:07:02.217Z,7.30
2018-06-11T05:08:02.252Z,7.20
2018-06-11T05:09:02.167Z,6.30
2018-06-11T05:10:02.146Z,6.10
2018-06-11T05:11:02.122Z,6.20
2018-06-11T05:12:02.097Z,6.40
2018-06-11T05:13:02.075Z,6.50
2018-06-11T05:14:02.051Z,6.00
2018-06-11T05:15:02.028Z,6.60
2018-06-11T05:16:02.005Z,6.30
2018-06-11T05:17:01.985Z,6.60
2018-06-11T05:18:01.958Z,5.90
2018-06-11T05:19:01.936Z,5.30
2018-06-11T05:20:01.921Z,5.10
2018-06-11T05:21:01.890Z,4.80
2018-06-11T05:22:01.868Z,4.70
2018-06-11T05:23:01.843Z,4.90
2018-06-11T05:24:01.822Z,5.40
2018-06-11T05:25:01.796Z,5.40
2018-06-11T05:26:01.773Z,4.90
2018-06-11T05:27:01.750Z,5.30
2018-06-11T05:28:01.727Z,4.80
2018-06-11T05:29:01.715Z,4.20
2018-06-11T05:30:01.681Z,4.70
2018-06-11T05:31:01.657Z,3.80
2018-06-11T05:32:01.635Z,4.10
2018-06-11T05:33:01.611Z,3.70
2018-06-11T05:34:01.589Z,4.20
2018-06-11T05:35:01.566Z,4.60
2018-06-11T05:36:01.572Z,3.90
2018-06-11T05:37:01.520Z,3.80
2018-06-11T05:38:01.513Z,4.10
2018-06-11T05:39:01.480Z,4.40
2018-06-11T05:40:01.455Z,3.30
2018-06-11T05:41:01.428Z,4.10
2018-06-11T05:42:01.406Z,4.10
2018-06-11T05:43:01.384Z,4.30
2018-06-11T05:44:01.361Z,4.50
2018-06-11T05:45:01.341Z,4.30
2018-06-11T05:46:01.322Z,3.80
2018-06-11T05:47:01.296Z,4.00
2018-06-11T05:48:01.338Z,4.20
2018-06-11T05:49:01.250Z,4.10
2018-06-11T05:50:01.231Z,3.90
2018-06-11T05:51:01.204Z,4.00
2018-06-11T05:52:01.186Z,3.80
2018-06-11T05:53:01.159Z,4.30
2018-06-11T05:54:01.340Z,4.40
2018-06-11T05:55:01.115Z,4.20
2018-06-11T05:56:01.093Z,3.80
2018-06-11T05:57:01.073Z,3.80
2018-06-11T05:58:01.048Z,3.70
2018-06-11T05:59:01.027Z,4.00
2018-06-11T06:00:01.009Z,3.50
2018-06-11T06:01:00.982Z,3.90
2018-06-11T06:02:00.961Z,3.80
2018-06-11T06:03:00.943Z,4.20
2018-06-11T06:04:00.921Z,3.50
2018-06-11T06:05:00.900Z,3.50
2018-06-11T06:06:00.872Z,3.70
2018-06-11T06:07:00.849Z,4.10
2018-06-11T06:08:00.832Z,3.90
2018-06-11T06:09:01.010Z,4.60
2018-06-11T06:10:00.787Z,3.90
2018-06-11T06:11:00.764Z,4.00
2018-06-11T06:12:00.743Z,4.20
2018-06-11T06:13:00.718Z,3.70
2018-06-11T06:14:01.197Z,3.90
2018-06-11T06:15:00.674Z,4.30
2018-06-11T06:16:00.652Z,4.00
2018-06-11T06:17:00.636Z,3.80
2018-06-11T06:18:00.608Z,4.30
2018-06-11T06:19:00.592Z,4.30
2018-06-11T06:20:00.567Z,4.20
2018-06-11T06:21:00.545Z,4.20
2018-06-11T06:22:00.520Z,4.10
2018-06-11T06:23:00.500Z,4.50
2018-06-11T06:24:00.477Z,4.50
2018-06-11T06:25:00.454Z,4.40
2018-06-11T06:26:00.436Z,4.80
2018-06-11T06:27:00.415Z,4.20
2018-06-11T06:28:00.397Z,4.10
2018-06-11T06:29:00.365Z,4.60
2018-06-11T06:30:00.347Z,4.90
2018-06-11T06:31:00.325Z,4.50
2018-06-11T06:32:00.301Z,4.60
2018-06-11T06:33:00.281Z,5.20
2018-06-11T06:34:00.257Z,4.90
2018-06-11T06:35:00.238Z,4.70
2018-06-11T06:36:00.214Z,4.80
2018-06-11T06:37:00.192Z,5.30
2018-06-11T06:38:00.172Z,4.60
2018-06-11T06:39:00.153Z,4.40
2018-06-11T06:40:00.137Z,3.50
2018-06-11T06:41:00.309Z,4.40
2018-06-11T06:42:00.285Z,4.40
2018-06-11T06:43:42.429Z,4.10
2018-06-11T06:44:42.600Z,4.50
2018-06-11T06:45:42.374Z,3.60
2018-06-11T06:46:42.157Z,3.80
2018-06-11T06:47:42.130Z,4.40
2018-06-11T06:48:42.106Z,3.90
2018-06-11T06:49:42.088Z,4.70
2018-06-11T06:50:42.066Z,3.90
2018-06-11T06:51:42.055Z,4.10
2018-06-11T06:52:42.025Z,3.70
2018-06-11T06:53:42.057Z,4.00
2018-06-11T06:54:42.223Z,3.90
2018-06-11T06:55:44.588Z,3.90
2018-06-11T06:57:24.308Z,3.90
2018-06-11T06:58:25.296Z,3.70
2018-06-11T06:59:24.267Z,4.00
2018-06-11T07:00:24.249Z,3.60
2018-06-11T07:02:48.541Z,3.70
2018-06-11T07:03:48.322Z,3.30
2018-06-11T07:04:48.504Z,3.60
2018-06-11T07:05:48.285Z,3.50
2018-06-11T07:06:48.267Z,3.70
2018-06-11T07:07:48.247Z,3.80
2018-06-11T07:08:48.230Z,3.40
2018-06-11T07:09:48.212Z,4.00
2018-06-11T07:10:48.195Z,3.20
2018-06-11T07:11:48.176Z,3.40
2018-06-11T07:12:48.171Z,3.50
2018-06-11T07:13:48.140Z,3.50
2018-06-11T07:14:48.127Z,3.70
2018-06-11T07:15:48.104Z,3.50
2018-06-11T07:16:48.091Z,3.60
2018-06-11T07:17:48.270Z,3.40
2018-06-11T07:18:48.051Z,3.00
2018-06-11T07:19:48.040Z,3.40
2018-06-11T07:20:48.865Z,3.20
2018-06-11T07:21:47.996Z,3.40
2018-06-11T07:22:47.979Z,3.00
2018-06-11T07:23:47.960Z,3.20
2018-06-11T07:24:47.943Z,3.20
2018-06-11T07:25:47.925Z,3.60
2018-06-11T07:26:47.916Z,3.10
2018-06-11T07:27:47.887Z,3.10
2018-06-11T07:28:47.871Z,3.30
2018-06-11T07:29:47.862Z,3.40
2018-06-11T07:30:47.835Z,3.80
2018-06-11T07:31:47.817Z,3.80
2018-06-11T07:32:47.798Z,3.40
2018-06-11T07:33:47.782Z,3.40
2018-06-11T07:34:47.769Z,3.50
2018-06-11T07:35:47.743Z,3.70
2018-06-11T07:36:47.727Z,3.40
2018-06-11T07:37:47.707Z,3.40
2018-06-11T07:38:47.688Z,3.80
2018-06-11T07:39:47.668Z,4.00
2018-06-11T07:40:47.650Z,3.70
2018-06-11T07:41:47.632Z,3.80
2018-06-11T07:42:47.613Z,3.80
2018-06-11T07:43:47.594Z,3.80
2018-06-11T07:44:47.583Z,3.80
2018-06-11T07:45:47.556Z,3.80
2018-06-11T07:46:47.538Z,3.70
2018-06-11T07:47:47.517Z,3.70
2018-06-11T07:48:47.499Z,3.70
2018-06-11T07:49:47.480Z,3.60
2018-06-11T07:50:47.492Z,4.30
2018-06-11T07:51:47.445Z,4.40
2018-06-11T07:52:47.422Z,3.70
2018-06-11T07:53:47.403Z,4.10
2018-06-11T07:54:47.384Z,4.10
2018-06-11T07:55:47.363Z,3.80
2018-06-11T07:56:47.347Z,4.20
2018-06-11T07:57:47.327Z,4.20
2018-06-11T07:58:47.311Z,4.10
2018-06-11T07:59:47.288Z,4.60
2018-06-11T08:00:47.269Z,3.80
2018-06-11T08:01:47.257Z,4.20
2018-06-11T08:02:47.232Z,3.90
2018-06-11T08:03:47.211Z,4.00
2018-06-11T08:04:47.200Z,4.00
2018-06-11T08:05:47.188Z,4.40
2018-06-11T08:06:47.159Z,3.90
2018-06-11T08:07:47.136Z,4.10
2018-06-11T08:08:47.121Z,4.20
2018-06-11T08:09:47.102Z,4.00
2018-06-11T08:10:47.079Z,4.50
2018-06-11T08:11:47.076Z,4.60
2018-06-11T08:12:47.040Z,4.20
2018-06-11T08:13:47.022Z,3.80
2018-06-11T08:14:47.003Z,3.70
2018-06-11T08:15:46.986Z,3.90
2018-06-11T08:16:46.970Z,3.70
2018-06-11T08:17:46.947Z,3.70
2018-06-11T08:18:46.940Z,3.70
2018-06-11T08:19:46.925Z,3.80
2018-06-11T08:20:46.936Z,3.70
2018-06-11T08:21:46.874Z,3.70
2018-06-11T08:22:47.073Z,3.70
2018-06-11T08:23:46.848Z,3.60
2018-06-11T08:24:46.823Z,4.20
2018-06-11T08:25:47.006Z,3.50
2018-06-11T08:26:46.795Z,3.60
2018-06-11T08:27:46.767Z,4.00
2018-06-11T08:28:46.749Z,3.40
2018-06-11T08:33:17.716Z,4.80
2018-06-11T08:34:17.495Z,4.80
2018-06-11T08:35:17.477Z,4.50
2018-06-11T08:36:17.459Z,4.70
2018-06-11T08:37:17.441Z,4.40
2018-06-11T08:38:17.427Z,4.30
2018-06-11T08:39:17.407Z,4.60
2018-06-11T08:40:17.385Z,4.00
2018-06-11T08:41:17.367Z,4.90
2018-06-11T08:42:17.352Z,4.70
2018-06-11T08:43:17.583Z,3.80
2018-06-11T08:44:17.311Z,4.50
2018-06-11T08:45:17.496Z,3.90
2018-06-11T08:46:17.478Z,4.50
2018-06-11T08:47:17.259Z,4.20
2018-06-11T08:48:17.444Z,3.60
2018-06-11T08:49:17.226Z,3.90
2018-06-11T08:50:17.410Z,4.20
2018-06-11T08:51:17.191Z,3.70
2018-06-11T08:52:17.175Z,3.90
2018-06-11T08:53:17.157Z,4.20
2018-06-11T08:54:17.144Z,4.30
2018-06-11T08:55:17.145Z,4.30
2018-06-11T08:56:17.195Z,4.00
2018-06-11T08:57:17.091Z,4.50
2018-06-11T08:58:17.275Z,4.50
2018-06-11T08:59:17.263Z,4.20
2018-06-11T09:00:17.039Z,4.10
2018-06-11T09:01:17.025Z,4.60
2018-06-11T09:02:17.006Z,4.70
2018-06-11T09:03:16.986Z,4.60
2018-06-11T09:04:16.968Z,4.50
2018-06-11T09:05:16.952Z,4.80
2018-06-11T09:06:16.936Z,4.60
2018-06-11T09:07:17.122Z,5.10
2018-06-11T09:08:17.102Z,4.60
2018-06-11T09:09:59.242Z,4.20
2018-06-11T09:10:59.226Z,4.50
2018-06-11T09:12:02.439Z,4.20
2018-06-11T09:12:59.196Z,4.60
2018-06-11T09:13:58.978Z,4.30
2018-06-11T09:15:41.322Z,4.00
2018-06-11T09:16:41.104Z,3.90
2018-06-11T09:17:41.299Z,3.80
2018-06-11T09:18:41.278Z,3.70
2018-06-11T09:19:41.268Z,4.70
2018-06-11T09:20:41.254Z,3.70
2018-06-11T09:21:41.037Z,4.10
2018-06-11T09:22:41.223Z,4.10
2018-06-11T09:23:41.009Z,4.10
2018-06-11T09:24:40.995Z,4.60
2018-06-11T09:25:40.985Z,3.70
2018-06-11T09:26:40.969Z,4.70
2018-06-11T09:27:40.956Z,4.50
2018-06-11T09:28:40.943Z,4.00
2018-06-11T09:29:40.931Z,3.90
2018-06-11T09:30:40.916Z,4.20
2018-06-11T09:31:41.105Z,4.70
2018-06-11T09:32:41.094Z,4.60
2018-06-11T09:33:40.877Z,4.90
2018-06-11T09:34:40.861Z,5.00
2018-06-11T09:35:40.846Z,4.10
2018-06-11T09:36:40.833Z,4.80
2018-06-11T09:37:40.816Z,4.90
2018-06-11T09:38:40.801Z,4.90
2018-06-11T09:39:40.989Z,5.00
2018-06-11T09:40:40.772Z,4.40
2018-06-11T09:41:40.757Z,4.50
2018-06-11T09:42:40.741Z,4.60
2018-06-11T09:43:40.788Z,4.30
2018-06-11T09:44:40.711Z,4.80
2018-06-11T09:45:40.696Z,4.20
2018-06-11T09:46:40.689Z,4.50
2018-06-11T09:47:40.668Z,4.20
2018-06-11T09:48:40.654Z,4.70
2018-06-11T09:49:40.641Z,4.30
2018-06-11T09:50:40.635Z,4.90
2018-06-11T09:51:40.615Z,5.30
2018-06-11T09:52:40.605Z,5.30
2018-06-11T09:53:40.584Z,4.60
2018-06-11T09:54:40.570Z,4.80
2018-06-11T09:55:40.608Z,4.60
2018-06-11T09:56:40.541Z,4.30
2018-06-11T09:57:40.526Z,4.40
2018-06-11T09:58:40.517Z,4.50
2018-06-11T09:59:40.496Z,4.60
2018-06-11T10:00:40.483Z,4.00
2018-06-11T10:01:40.469Z,4.20
2018-06-11T10:02:40.479Z,3.90
2018-06-11T10:03:40.492Z,4.20
2018-06-11T10:04:40.423Z,4.50
2018-06-11T10:05:40.415Z,4.20
2018-06-11T10:06:40.402Z,4.10
2018-06-11T10:07:40.378Z,3.70
2018-06-11T10:08:40.360Z,4.60
2018-06-11T10:09:40.357Z,4.30
2018-06-11T10:10:40.330Z,4.10
2018-06-11T10:11:40.316Z,4.30
2018-06-11T10:12:40.300Z,4.00
2018-06-11T10:13:40.346Z,3.20
2018-06-11T10:14:40.271Z,4.00
2018-06-11T10:15:40.285Z,4.60
2018-06-11T10:16:40.241Z,5.00
2018-06-11T10:17:40.230Z,4.20
2018-06-11T10:18:40.213Z,4.30
2018-06-11T10:19:40.199Z,3.70
2018-06-11T10:20:40.184Z,3.70
2018-06-11T10:21:40.171Z,4.40
2018-06-11T10:22:40.158Z,4.40
2018-06-11T10:23:40.145Z,3.90
2018-06-11T10:24:40.129Z,3.90
2018-06-11T10:25:40.322Z,4.60
2018-06-11T10:26:40.316Z,4.00
2018-06-11T10:27:40.096Z,3.70
2018-06-11T10:28:40.078Z,5.10
2018-06-11T10:29:40.067Z,4.10
2018-06-11T10:30:40.059Z,4.40
2018-06-11T10:31:40.046Z,4.80
2018-06-11T10:32:40.032Z,4.70
2018-06-11T10:33:40.013Z,4.20
2018-06-11T10:34:40.000Z,3.90
2018-06-11T10:35:39.988Z,4.20
2018-06-11T10:36:39.972Z,4.70
2018-06-11T10:37:39.959Z,4.30
2018-06-11T10:38:39.945Z,4.90
2018-06-11T10:39:39.939Z,4.30
2018-06-11T10:40:39.921Z,3.60
2018-06-11T10:41:39.909Z,4.70
2018-06-11T10:42:39.891Z,4.20
2018-06-11T10:43:39.878Z,3.80
2018-06-11T10:44:41.281Z,4.60
2018-06-11T10:45:39.857Z,4.40
2018-06-11T10:46:39.840Z,3.70
2018-06-11T10:47:39.827Z,3.60
2018-06-11T10:48:39.811Z,3.60
2018-06-11T10:49:39.798Z,3.80
2018-06-11T10:50:39.786Z,4.00
2018-06-11T10:51:39.771Z,3.70
2018-06-11T10:52:39.758Z,3.90
2018-06-11T10:53:39.750Z,3.60
2018-06-11T10:54:39.733Z,3.70
2018-06-11T10:55:39.720Z,3.90
2018-06-11T10:56:39.706Z,3.70
2018-06-11T10:57:39.702Z,3.50
2018-06-11T10:58:39.683Z,3.90
2018-06-11T10:59:39.668Z,4.40
2018-06-11T11:00:39.653Z,3.80
2018-06-11T11:01:39.643Z,4.00
2018-06-11T11:02:39.643Z,4.40
2018-06-11T11:03:39.635Z,4.10
2018-06-11T11:04:39.701Z,3.60
2018-06-11T11:05:39.588Z,3.90
2018-06-11T11:06:39.574Z,3.30
2018-06-11T11:07:39.561Z,4.20
2018-06-11T11:08:39.547Z,3.80
2018-06-11T11:09:39.539Z,4.10
2018-06-11T11:10:39.524Z,3.90
2018-06-11T11:11:39.507Z,3.60
2018-06-11T11:12:39.549Z,3.40
2018-06-11T11:13:39.481Z,3.60
2018-06-11T11:14:39.468Z,3.50
2018-06-11T11:15:39.455Z,3.60
2018-06-11T11:16:39.446Z,3.70
2018-06-11T11:17:39.429Z,3.90
2018-06-11T11:18:39.416Z,3.70
2018-06-11T11:19:39.402Z,3.90
2018-06-11T11:20:39.388Z,4.00
2018-06-11T11:21:39.375Z,4.40
2018-06-11T11:22:39.361Z,4.20
2018-06-11T11:23:39.347Z,4.00
2018-06-11T11:24:39.332Z,4.10
2018-06-11T11:25:39.316Z,4.00
2018-06-11T11:26:39.315Z,3.90
2018-06-11T11:27:39.288Z,4.50
2018-06-11T11:28:39.272Z,4.00
2018-06-11T11:29:39.258Z,4.00
2018-06-11T11:30:39.299Z,3.60
2018-06-11T11:31:39.228Z,4.10
2018-06-11T11:32:39.214Z,3.90
2018-06-11T11:33:39.198Z,4.30
2018-06-11T11:34:39.181Z,4.40
2018-06-11T11:35:39.165Z,4.40
2018-06-11T11:36:39.147Z,3.70
2018-06-11T11:37:39.136Z,3.90
2018-06-11T11:38:39.118Z,4.20
2018-06-11T11:39:39.103Z,4.30
2018-06-11T11:40:39.087Z,4.30
2018-06-11T11:41:39.071Z,4.20
2018-06-11T11:42:39.058Z,4.20
2018-06-11T11:43:39.042Z,4.20
2018-06-11T11:44:39.024Z,3.60
2018-06-11T11:45:39.011Z,3.80
2018-06-11T11:46:38.999Z,3.60
2018-06-11T11:47:38.981Z,3.70
2018-06-11T11:48:38.967Z,3.90
2018-06-11T11:49:38.949Z,4.10
2018-06-11T11:50:38.940Z,4.10
2018-06-11T11:51:38.920Z,3.70
2018-06-11T11:52:38.904Z,3.80
2018-06-11T11:53:38.890Z,4.10
2018-06-11T11:54:38.875Z,3.90
2018-06-11T11:55:38.865Z,3.50
2018-06-11T11:56:38.848Z,3.40
2018-06-11T11:57:38.833Z,3.60
2018-06-11T11:58:38.813Z,3.40
2018-06-11T11:59:39.001Z,4.10
2018-06-11T12:00:38.782Z,4.80
2018-06-11T12:01:38.818Z,3.80
2018-06-11T12:02:38.752Z,3.90
2018-06-11T12:03:38.739Z,4.30
2018-06-11T12:04:38.725Z,3.40
2018-06-11T12:05:38.708Z,3.40
2018-06-11T12:06:38.694Z,3.90
2018-06-11T12:07:38.682Z,3.90
2018-06-11T12:08:38.867Z,3.40
2018-06-11T12:09:38.851Z,4.10
2018-06-11T12:10:38.637Z,4.40
2018-06-11T12:11:38.622Z,4.90
2018-06-11T12:12:38.632Z,4.90
2018-06-11T12:13:38.594Z,4.70
2018-06-11T12:14:38.584Z,4.40
2018-06-11T12:15:38.568Z,4.20
2018-06-11T12:16:38.553Z,4.20
2018-06-11T12:17:38.542Z,3.70
2018-06-11T12:18:38.535Z,4.00
2018-06-11T12:19:38.719Z,4.20
2018-06-11T12:20:38.706Z,3.50
2018-06-11T12:21:38.693Z,3.60
2018-06-11T12:22:38.682Z,3.90
2018-06-11T12:23:38.468Z,4.40
2018-06-11T12:24:38.657Z,3.90
2018-06-11T12:25:41.268Z,3.90
2018-06-11T12:26:38.642Z,3.70
2018-06-11T12:27:38.628Z,4.10
2018-06-11T12:29:20.772Z,4.70
2018-06-11T12:30:20.558Z,4.70
2018-06-11T12:31:20.786Z,5.70
2018-06-11T12:32:20.536Z,5.80
2018-06-11T12:33:20.524Z,4.80
2018-06-11T12:34:20.512Z,4.70
2018-06-11T12:35:20.507Z,4.10
2018-06-11T12:36:20.493Z,3.80
2018-06-11T12:37:20.681Z,3.90
2018-06-11T12:38:20.672Z,4.20
2018-06-11T12:39:20.454Z,4.30
2018-06-11T12:40:20.648Z,4.30
2018-06-11T12:41:20.635Z,3.60
2018-06-11T12:42:21.229Z,3.80
2018-06-11T12:43:20.610Z,3.70
2018-06-11T12:44:20.601Z,4.00
2018-06-11T12:45:20.383Z,4.40
2018-06-11T12:46:20.370Z,4.40
2018-06-11T12:47:20.365Z,3.60
2018-06-11T12:48:20.350Z,3.80
2018-06-11T12:49:20.331Z,4.30
2018-06-11T12:50:20.322Z,3.60
2018-06-11T12:51:20.306Z,3.40
2018-06-11T12:52:20.293Z,3.80
2018-06-11T12:53:20.280Z,3.70
2018-06-11T12:54:20.277Z,3.70
2018-06-11T12:55:20.254Z,4.10
2018-06-11T12:56:20.248Z,3.50
2018-06-11T12:57:20.232Z,3.50
2018-06-11T12:58:20.213Z,4.20
2018-06-11T12:59:20.206Z,3.90
2018-06-11T13:00:20.188Z,4.00
2018-06-11T13:01:20.378Z,4.80
2018-06-11T13:02:20.364Z,4.50
2018-06-11T13:03:20.176Z,4.80
2018-06-11T13:04:20.138Z,4.30
2018-06-11T13:05:20.120Z,4.20
2018-06-11T13:06:20.105Z,4.10
2018-06-11T13:07:20.104Z,4.20
2018-06-11T13:08:20.140Z,4.40
2018-06-11T13:09:20.065Z,3.70
2018-06-11T13:10:20.051Z,3.60
2018-06-11T13:11:20.038Z,4.30
2018-06-11T13:12:20.025Z,3.70
2018-06-11T13:13:20.017Z,4.00
2018-06-11T13:14:19.998Z,3.70
2018-06-11T13:15:19.984Z,4.70
2018-06-11T13:16:19.970Z,4.00
2018-06-11T13:17:19.958Z,4.20
2018-06-11T13:18:19.948Z,4.10
2018-06-11T13:19:19.957Z,3.90
2018-06-11T13:20:19.915Z,3.80
2018-06-11T13:21:19.901Z,3.90
2018-06-11T13:22:19.887Z,4.00
2018-06-11T13:23:19.873Z,3.90
2018-06-11T13:24:19.859Z,4.00
2018-06-11T13:25:19.851Z,3.80